createdAt,value
2017-12-11T00:00:15.276Z,18.83
2017-12-11T00:01:17.745Z,18.83
2017-12-11T00:02:20.237Z,18.83
2017-12-11T00:03:22.694Z,18.82
2017-12-11T00:04:25.198Z,18.81
2017-12-11T00:05:27.665Z,18.80
2017-12-11T00:06:30.140Z,18.80
2017-12-11T00:07:32.605Z,18.79
2017-12-11T00:08:35.068Z,18.78
2017-12-11T00:09:37.561Z,18.77
2017-12-11T00:10:40.051Z,18.77
2017-12-11T00:11:42.521Z,18.77
2017-12-11T00:12:44.982Z,18.77
2017-12-11T00:13:47.456Z,18.78
2017-12-11T00:14:49.918Z,18.77
2017-12-11T00:15:52.467Z,18.76
2017-12-11T00:16:54.941Z,18.75
2017-12-11T00:17:57.404Z,18.75
2017-12-11T00:18:59.880Z,18.74
2017-12-11T00:20:02.344Z,18.73
2017-12-11T00:21:04.816Z,18.72
2017-12-11T00:22:07.298Z,18.71
2017-12-11T00:23:09.852Z,18.70
2017-12-11T00:24:12.328Z,18.69
2017-12-11T00:25:14.808Z,18.69
2017-12-11T00:26:17.267Z,18.68
2017-12-11T00:27:19.723Z,18.66
2017-12-11T00:28:22.198Z,18.65
2017-12-11T00:29:24.670Z,18.64
2017-12-11T00:30:27.122Z,18.64
2017-12-11T00:31:29.582Z,18.63
2017-12-11T00:32:32.046Z,18.63
2017-12-11T00:33:34.512Z,18.63
2017-12-11T00:34:36.973Z,18.62
2017-12-11T00:35:39.448Z,18.62
2017-12-11T00:36:41.904Z,18.60
2017-12-11T00:37:44.371Z,18.61
2017-12-11T00:38:46.834Z,18.60
2017-12-11T00:39:49.301Z,18.58
2017-12-11T00:40:51.754Z,18.58
2017-12-11T00:41:54.210Z,18.56
2017-12-11T00:42:56.662Z,18.56
2017-12-11T00:43:59.114Z,18.54
2017-12-11T00:45:01.589Z,18.53
2017-12-11T00:46:04.056Z,18.52
2017-12-11T00:47:06.512Z,18.51
2017-12-11T00:48:08.985Z,18.50
2017-12-11T00:49:11.438Z,18.50
2017-12-11T00:50:13.890Z,18.48
2017-12-11T00:51:16.342Z,18.47
2017-12-11T00:52:18.800Z,18.46
2017-12-11T00:53:21.266Z,18.45
2017-12-11T00:54:23.733Z,18.43
2017-12-11T00:55:26.196Z,18.42
2017-12-11T00:56:28.660Z,18.42
2017-12-11T00:57:31.136Z,18.41
2017-12-11T00:58:33.608Z,18.40
2017-12-11T00:59:36.072Z,18.39
2017-12-11T01:00:38.526Z,18.38
2017-12-11T01:01:41.034Z,18.38
2017-12-11T01:02:43.468Z,18.37
2017-12-11T01:03:45.924Z,18.36
2017-12-11T01:04:48.381Z,18.36
2017-12-11T01:05:50.837Z,18.35
2017-12-11T01:06:53.305Z,18.35
2017-12-11T01:07:55.762Z,18.34
2017-12-11T01:08:58.229Z,18.33
2017-12-11T01:10:00.678Z,18.32
2017-12-11T01:11:03.141Z,18.32
2017-12-11T01:12:05.640Z,18.31
2017-12-11T01:13:08.106Z,18.30
2017-12-11T01:14:10.575Z,18.29
2017-12-11T01:15:13.185Z,18.28
2017-12-11T01:16:15.635Z,18.28
2017-12-11T01:17:18.113Z,18.27
2017-12-11T01:18:20.582Z,18.26
2017-12-11T01:19:23.030Z,18.26
2017-12-11T01:20:25.497Z,18.25
2017-12-11T01:21:27.951Z,18.25
2017-12-11T01:22:30.420Z,18.24
2017-12-11T01:23:32.884Z,18.24
2017-12-11T01:24:35.339Z,18.24
2017-12-11T01:25:37.810Z,18.24
2017-12-11T01:26:40.266Z,18.23
2017-12-11T01:27:42.758Z,18.23
2017-12-11T01:28:45.210Z,18.23
2017-12-11T01:29:47.662Z,18.23
2017-12-11T01:30:50.114Z,18.22
2017-12-11T01:31:52.585Z,18.22
2017-12-11T01:32:55.061Z,18.21
2017-12-11T01:33:57.519Z,18.20
2017-12-11T01:34:59.965Z,18.19
2017-12-11T01:36:02.421Z,18.18
2017-12-11T01:37:04.965Z,18.17
2017-12-11T01:38:07.418Z,18.17
2017-12-11T01:39:09.870Z,18.16
2017-12-11T01:40:12.337Z,18.15
2017-12-11T01:41:14.804Z,18.14
2017-12-11T01:42:17.251Z,18.13
2017-12-11T01:43:19.714Z,18.12
2017-12-11T01:44:22.180Z,18.11
2017-12-11T01:45:24.654Z,18.10
2017-12-11T01:46:27.114Z,18.09
2017-12-11T01:47:29.570Z,18.10
2017-12-11T01:48:32.034Z,18.10
2017-12-11T01:49:34.485Z,18.10
2017-12-11T01:50:36.935Z,18.09
2017-12-11T01:51:39.404Z,18.09
2017-12-11T01:52:41.867Z,18.08
2017-12-11T01:53:44.338Z,18.07
2017-12-11T01:54:46.819Z,18.07
2017-12-11T01:55:49.278Z,18.07
2017-12-11T01:56:51.746Z,18.05
2017-12-11T01:57:54.203Z,18.05
2017-12-11T01:58:56.676Z,18.05
2017-12-11T01:59:59.153Z,18.04
2017-12-11T02:01:01.611Z,18.04
2017-12-11T02:02:04.080Z,18.03
2017-12-11T02:03:06.544Z,18.02
2017-12-11T02:04:09.012Z,18.01
2017-12-11T02:05:11.492Z,18.00
2017-12-11T02:06:13.951Z,17.99
2017-12-11T02:07:16.422Z,17.98
2017-12-11T02:08:18.884Z,17.97
2017-12-11T02:09:21.353Z,17.96
2017-12-11T02:10:23.828Z,17.95
2017-12-11T02:11:26.316Z,17.95
2017-12-11T02:12:28.788Z,17.94
2017-12-11T02:13:31.260Z,17.95
2017-12-11T02:14:33.737Z,17.94
2017-12-11T02:15:36.201Z,17.94
2017-12-11T02:16:38.681Z,17.93
2017-12-11T02:17:41.161Z,17.93
2017-12-11T02:18:43.614Z,17.92
2017-12-11T02:19:46.080Z,17.92
2017-12-11T02:20:48.538Z,17.91
2017-12-11T02:21:51.000Z,17.91
2017-12-11T02:22:53.480Z,17.91
2017-12-11T02:23:55.948Z,17.90
2017-12-11T02:24:58.412Z,17.89
2017-12-11T02:26:00.893Z,17.90
2017-12-11T02:27:03.371Z,17.89
2017-12-11T02:28:05.818Z,17.90
2017-12-11T02:29:08.282Z,17.90
2017-12-11T02:30:10.745Z,17.90
2017-12-11T02:31:13.222Z,17.89
2017-12-11T02:32:15.678Z,17.90
2017-12-11T02:33:18.145Z,17.90
2017-12-11T02:34:20.606Z,17.91
2017-12-11T02:35:23.215Z,17.91
2017-12-11T02:36:25.708Z,17.90
2017-12-11T02:37:28.167Z,17.91
2017-12-11T02:38:30.687Z,17.91
2017-12-11T02:39:33.167Z,17.91
2017-12-11T02:40:35.665Z,17.90
2017-12-11T02:41:38.118Z,17.90
2017-12-11T02:42:40.570Z,17.89
2017-12-11T02:43:43.032Z,17.89
2017-12-11T02:44:45.494Z,17.88
2017-12-11T02:45:47.986Z,17.87
2017-12-11T02:46:50.442Z,17.87
2017-12-11T02:47:52.922Z,17.87
2017-12-11T02:48:55.404Z,17.86
2017-12-11T02:49:57.860Z,17.86
2017-12-11T02:51:00.347Z,17.86
2017-12-11T02:52:02.797Z,17.87
2017-12-11T02:53:05.260Z,17.87
2017-12-11T02:54:07.829Z,17.89
2017-12-11T02:55:10.287Z,17.89
2017-12-11T02:56:12.777Z,17.89
2017-12-11T02:57:15.243Z,17.89
2017-12-11T02:58:17.732Z,17.89
2017-12-11T02:59:20.202Z,17.90
2017-12-11T03:00:22.688Z,17.89
2017-12-11T03:01:25.174Z,17.89
2017-12-11T03:02:27.638Z,17.89
2017-12-11T03:03:30.094Z,17.88
2017-12-11T03:04:32.568Z,17.87
2017-12-11T03:05:35.049Z,17.87
2017-12-11T03:06:37.545Z,17.86
2017-12-11T03:07:39.998Z,17.85
2017-12-11T03:08:42.458Z,17.85
2017-12-11T03:09:44.937Z,17.84
2017-12-11T03:10:47.424Z,17.83
2017-12-11T03:11:49.920Z,17.82
2017-12-11T03:12:52.467Z,17.82
2017-12-11T03:13:54.936Z,17.80
2017-12-11T03:14:57.403Z,17.80
2017-12-11T03:15:59.864Z,17.79
2017-12-11T03:17:02.359Z,17.78
2017-12-11T03:18:04.810Z,17.78
2017-12-11T03:19:08.123Z,17.77
2017-12-11T03:20:10.604Z,17.77
2017-12-11T03:21:13.050Z,17.76
2017-12-11T03:22:15.521Z,17.76
2017-12-11T03:23:17.990Z,17.76
2017-12-11T03:24:20.453Z,17.75
2017-12-11T03:25:22.917Z,17.75
2017-12-11T03:26:25.391Z,17.75
2017-12-11T03:27:27.875Z,17.74
2017-12-11T03:28:30.353Z,17.73
2017-12-11T03:29:32.852Z,17.73
2017-12-11T03:30:35.325Z,17.71
2017-12-11T03:31:37.800Z,17.71
2017-12-11T03:32:40.282Z,17.72
2017-12-11T03:33:42.750Z,17.71
2017-12-11T03:34:45.224Z,17.70
2017-12-11T03:35:47.700Z,17.71
2017-12-11T03:36:50.185Z,17.70
2017-12-11T03:37:52.654Z,17.70
2017-12-11T03:38:55.120Z,17.69
2017-12-11T03:39:57.570Z,17.68
2017-12-11T03:41:00.041Z,17.68
2017-12-11T03:42:02.549Z,17.67
2017-12-11T03:43:05.038Z,17.67
2017-12-11T03:44:07.494Z,17.66
2017-12-11T03:45:09.964Z,17.65
2017-12-11T03:46:12.422Z,17.65
2017-12-11T03:47:14.945Z,17.64
2017-12-11T03:48:17.453Z,17.63
2017-12-11T03:49:19.917Z,17.62
2017-12-11T03:50:22.392Z,17.61
2017-12-11T03:51:24.859Z,17.61
2017-12-11T03:52:27.341Z,17.61
2017-12-11T03:53:29.840Z,17.60
2017-12-11T03:54:32.307Z,17.59
2017-12-11T03:55:34.771Z,17.59
2017-12-11T03:56:37.232Z,17.58
2017-12-11T03:57:39.730Z,17.59
2017-12-11T03:58:42.233Z,17.58
2017-12-11T03:59:44.724Z,17.58
2017-12-11T04:00:47.336Z,17.58
2017-12-11T04:01:49.798Z,17.57
2017-12-11T04:02:52.262Z,17.57
2017-12-11T04:03:54.745Z,17.57
2017-12-11T04:04:57.220Z,17.57
2017-12-11T04:05:59.683Z,17.57
2017-12-11T04:07:02.146Z,17.57
2017-12-11T04:08:04.611Z,17.57
2017-12-11T04:09:07.074Z,17.57
2017-12-11T04:10:09.553Z,17.57
2017-12-11T04:11:12.033Z,17.57
2017-12-11T04:12:14.499Z,17.58
2017-12-11T04:13:16.962Z,17.57
2017-12-11T04:14:19.446Z,17.57
2017-12-11T04:15:21.907Z,17.56
2017-12-11T04:16:24.395Z,17.56
2017-12-11T04:17:26.859Z,17.55
2017-12-11T04:18:29.317Z,17.54
2017-12-11T04:19:31.786Z,17.53
2017-12-11T04:20:34.270Z,17.52
2017-12-11T04:21:36.744Z,17.52
2017-12-11T04:22:39.224Z,17.50
2017-12-11T04:23:41.700Z,17.49
2017-12-11T04:24:44.204Z,17.48
2017-12-11T04:25:46.688Z,17.47
2017-12-11T04:26:49.174Z,17.46
2017-12-11T04:27:51.660Z,17.45
2017-12-11T04:28:54.140Z,17.45
2017-12-11T04:29:56.640Z,17.44
2017-12-11T04:30:59.113Z,17.43
2017-12-11T04:32:01.592Z,17.43
2017-12-11T04:33:04.054Z,17.43
2017-12-11T04:34:06.529Z,17.42
2017-12-11T04:35:09.020Z,17.42
2017-12-11T04:36:11.474Z,17.42
2017-12-11T04:37:13.938Z,17.41
2017-12-11T04:38:16.411Z,17.41
2017-12-11T04:39:18.874Z,17.41
2017-12-11T04:40:21.409Z,17.40
2017-12-11T04:41:23.881Z,17.40
2017-12-11T04:42:26.360Z,17.39
2017-12-11T04:43:28.838Z,17.39
2017-12-11T04:44:31.325Z,17.38
2017-12-11T04:45:33.801Z,17.38
2017-12-11T04:46:36.276Z,17.37
2017-12-11T04:47:38.764Z,17.36
2017-12-11T04:48:41.222Z,17.36
2017-12-11T04:49:43.697Z,17.35
2017-12-11T04:50:46.193Z,17.35
2017-12-11T04:51:48.664Z,17.34
2017-12-11T04:52:51.130Z,17.35
2017-12-11T04:53:53.608Z,17.35
2017-12-11T04:54:56.062Z,17.36
2017-12-11T04:55:58.542Z,17.37
2017-12-11T04:57:00.999Z,17.36
2017-12-11T04:58:03.476Z,17.37
2017-12-11T04:59:05.947Z,17.37
2017-12-11T05:00:08.408Z,17.38
2017-12-11T05:01:10.914Z,17.38
2017-12-11T05:02:13.388Z,17.39
2017-12-11T05:03:15.854Z,17.39
2017-12-11T05:04:18.344Z,17.39
2017-12-11T05:05:20.810Z,17.38
2017-12-11T05:06:23.314Z,17.38
2017-12-11T05:07:25.786Z,17.38
2017-12-11T05:08:28.260Z,17.38
2017-12-11T05:09:30.726Z,17.37
2017-12-11T05:10:33.192Z,17.36
2017-12-11T05:11:35.662Z,17.36
2017-12-11T05:12:38.144Z,17.36
2017-12-11T05:13:40.622Z,17.36
2017-12-11T05:14:43.108Z,17.36
2017-12-11T05:15:45.580Z,17.35
2017-12-11T05:16:48.048Z,17.35
2017-12-11T05:17:50.520Z,17.34
2017-12-11T05:18:52.985Z,17.34
2017-12-11T05:19:55.472Z,17.33
2017-12-11T05:20:57.948Z,17.32
2017-12-11T05:22:00.444Z,17.32
2017-12-11T05:23:02.925Z,17.31
2017-12-11T05:24:05.396Z,17.31
2017-12-11T05:25:07.918Z,17.30
2017-12-11T05:26:10.391Z,17.30
2017-12-11T05:27:12.850Z,17.30
2017-12-11T05:28:15.323Z,17.30
2017-12-11T05:29:17.797Z,17.29
2017-12-11T05:30:20.266Z,17.29
2017-12-11T05:31:22.860Z,17.28
2017-12-11T05:32:25.326Z,17.28
2017-12-11T05:33:27.790Z,17.27
2017-12-11T05:34:30.280Z,17.27
2017-12-11T05:35:32.761Z,17.26
2017-12-11T05:36:35.239Z,17.27
2017-12-11T05:37:37.813Z,17.27
2017-12-11T05:38:40.283Z,17.29
2017-12-11T05:39:42.750Z,17.32
2017-12-11T05:40:45.228Z,17.33
2017-12-11T05:41:47.704Z,17.34
2017-12-11T05:42:50.165Z,17.34
2017-12-11T05:43:52.670Z,17.35
2017-12-11T05:44:55.185Z,17.35
2017-12-11T05:45:57.654Z,17.34
2017-12-11T05:47:00.123Z,17.34
2017-12-11T05:48:02.583Z,17.34
2017-12-11T05:49:05.073Z,17.34
2017-12-11T05:50:07.537Z,17.34
2017-12-11T05:51:10.007Z,17.33
2017-12-11T05:52:12.480Z,17.32
2017-12-11T05:53:14.957Z,17.31
2017-12-11T05:54:17.444Z,17.35
2017-12-11T05:55:19.924Z,17.32
2017-12-11T05:56:22.390Z,17.32
2017-12-11T05:57:24.864Z,17.31
2017-12-11T05:58:27.337Z,17.30
2017-12-11T05:59:29.806Z,17.29
2017-12-11T06:00:32.284Z,17.27
2017-12-11T06:01:34.765Z,17.26
2017-12-11T06:02:37.218Z,17.25
2017-12-11T06:03:39.688Z,17.26
2017-12-11T06:04:42.164Z,17.28
2017-12-11T06:05:44.659Z,17.32
2017-12-11T06:06:47.155Z,17.38
2017-12-11T06:07:49.606Z,17.48
2017-12-11T06:08:52.081Z,17.61
2017-12-11T06:09:54.552Z,17.77
2017-12-11T06:10:57.076Z,17.90
2017-12-11T06:11:59.551Z,18.06
2017-12-11T06:13:02.026Z,18.16
2017-12-11T06:14:04.512Z,18.23
2017-12-11T06:15:06.978Z,18.31
2017-12-11T06:16:09.443Z,18.41
2017-12-11T06:17:11.945Z,18.44
2017-12-11T06:18:14.466Z,18.50
2017-12-11T06:19:16.950Z,18.55
2017-12-11T06:20:19.414Z,18.58
2017-12-11T06:21:21.909Z,18.58
2017-12-11T06:22:24.410Z,18.59
2017-12-11T06:23:26.862Z,18.58
2017-12-11T06:24:29.369Z,18.56
2017-12-11T06:25:31.838Z,18.55
2017-12-11T06:26:34.306Z,18.55
2017-12-11T06:27:36.788Z,18.53
2017-12-11T06:28:39.274Z,18.52
2017-12-11T06:29:41.756Z,18.51
2017-12-11T06:30:44.214Z,18.52
2017-12-11T06:31:46.670Z,18.51
2017-12-11T06:32:49.122Z,18.50
2017-12-11T06:33:51.588Z,18.48
2017-12-11T06:34:54.091Z,18.45
2017-12-11T06:35:56.611Z,18.42
2017-12-11T06:36:59.040Z,18.39
2017-12-11T06:38:01.510Z,18.37
2017-12-11T06:39:03.966Z,18.34
2017-12-11T06:40:06.469Z,18.31
2017-12-11T06:41:08.952Z,18.29
2017-12-11T06:42:11.424Z,18.27
2017-12-11T06:43:13.881Z,18.24
2017-12-11T06:44:16.339Z,18.21
2017-12-11T06:45:18.810Z,18.19
2017-12-11T06:46:21.278Z,18.17
2017-12-11T06:47:23.772Z,18.15
2017-12-11T06:48:26.253Z,18.12
2017-12-11T06:49:28.714Z,18.10
2017-12-11T06:50:31.217Z,18.07
2017-12-11T06:51:33.670Z,18.06
2017-12-11T06:52:36.130Z,18.03
2017-12-11T06:53:38.593Z,18.01
2017-12-11T06:54:41.068Z,18.01
2017-12-11T06:55:43.551Z,17.99
2017-12-11T06:56:46.024Z,17.97
2017-12-11T06:57:48.499Z,17.96
2017-12-11T06:58:50.964Z,17.92
2017-12-11T06:59:53.452Z,17.88
2017-12-11T07:00:55.952Z,17.85
2017-12-11T07:01:58.522Z,17.84
2017-12-11T07:03:01.083Z,17.85
2017-12-11T07:04:03.557Z,17.80
2017-12-11T07:05:06.023Z,17.78
2017-12-11T07:06:08.507Z,17.76
2017-12-11T07:07:10.974Z,17.72
2017-12-11T07:08:13.446Z,17.70
2017-12-11T07:09:15.936Z,17.67
2017-12-11T07:10:18.421Z,17.66
2017-12-11T07:11:20.926Z,17.67
2017-12-11T07:12:23.390Z,17.68
2017-12-11T07:13:25.876Z,17.65
2017-12-11T07:14:28.424Z,17.62
2017-12-11T07:15:30.933Z,17.61
2017-12-11T07:16:33.441Z,17.59
2017-12-11T07:17:35.907Z,17.55
2017-12-11T07:18:38.379Z,17.44
2017-12-11T07:19:40.835Z,17.36
2017-12-11T07:20:43.311Z,17.27
2017-12-11T07:21:45.798Z,17.17
2017-12-11T07:22:48.266Z,17.13
2017-12-11T07:23:50.730Z,17.12
2017-12-11T07:24:53.208Z,17.14
2017-12-11T07:25:55.674Z,17.18
2017-12-11T07:26:58.162Z,17.20
2017-12-11T07:28:00.630Z,17.24
2017-12-11T07:29:03.140Z,17.25
2017-12-11T07:30:05.610Z,17.26
2017-12-11T07:31:08.081Z,17.27
2017-12-11T07:32:10.567Z,17.30
2017-12-11T07:33:13.071Z,17.32
2017-12-11T07:34:15.542Z,17.35
2017-12-11T07:35:18.020Z,17.37
2017-12-11T07:36:20.486Z,17.39
2017-12-11T07:37:22.981Z,17.41
2017-12-11T07:38:25.462Z,17.43
2017-12-11T07:39:27.931Z,17.45
2017-12-11T07:40:30.409Z,17.47
2017-12-11T07:41:32.893Z,17.48
2017-12-11T07:42:35.406Z,17.51
2017-12-11T07:43:37.875Z,17.51
2017-12-11T07:44:40.356Z,17.53
2017-12-11T07:45:42.819Z,17.53
2017-12-11T07:46:45.296Z,17.54
2017-12-11T07:47:47.927Z,17.54
2017-12-11T07:48:50.395Z,17.54
2017-12-11T07:49:52.858Z,17.55
2017-12-11T07:50:55.328Z,17.55
2017-12-11T07:51:58.058Z,17.56
2017-12-11T07:53:00.522Z,17.55
2017-12-11T07:54:02.986Z,17.56
2017-12-11T07:55:05.473Z,17.57
2017-12-11T07:56:07.952Z,17.55
2017-12-11T07:57:10.433Z,17.55
2017-12-11T07:58:12.941Z,17.55
2017-12-11T07:59:15.406Z,17.54
2017-12-11T08:00:17.897Z,17.55
2017-12-11T08:01:20.381Z,17.54
2017-12-11T08:02:22.861Z,17.55
2017-12-11T08:03:25.360Z,17.55
2017-12-11T08:04:27.831Z,17.55
2017-12-11T08:05:30.308Z,17.55
2017-12-11T08:06:32.774Z,17.54
2017-12-11T08:07:35.269Z,17.54
2017-12-11T08:08:37.739Z,17.54
2017-12-11T08:09:40.203Z,17.54
2017-12-11T08:10:42.680Z,17.54
2017-12-11T08:11:45.134Z,17.54
2017-12-11T08:12:47.618Z,17.54
2017-12-11T08:13:50.114Z,17.54
2017-12-11T08:14:52.578Z,17.54
2017-12-11T08:15:55.061Z,17.53
2017-12-11T08:16:57.585Z,17.53
2017-12-11T08:18:00.049Z,17.53
2017-12-11T08:19:02.521Z,17.54
2017-12-11T08:20:04.990Z,17.54
2017-12-11T08:21:07.473Z,17.54
2017-12-11T08:22:09.969Z,17.54
2017-12-11T08:23:12.441Z,17.54
2017-12-11T08:24:14.932Z,17.54
2017-12-11T08:25:17.402Z,17.55
2017-12-11T08:26:19.901Z,17.54
2017-12-11T08:27:22.371Z,17.54
2017-12-11T08:28:24.842Z,17.54
2017-12-11T08:29:27.320Z,17.53
2017-12-11T08:30:29.790Z,17.53
2017-12-11T08:31:32.273Z,17.53
2017-12-11T08:32:34.758Z,17.53
2017-12-11T08:33:37.242Z,17.54
2017-12-11T08:34:39.703Z,17.53
2017-12-11T08:35:42.201Z,17.53
2017-12-11T08:36:44.684Z,17.53
2017-12-11T08:37:47.150Z,17.53
2017-12-11T08:38:49.628Z,17.53
2017-12-11T08:39:52.100Z,17.52
2017-12-11T08:40:54.576Z,17.53
2017-12-11T08:41:57.056Z,17.51
2017-12-11T08:42:59.526Z,17.51
2017-12-11T08:44:02.033Z,17.52
2017-12-11T08:45:04.498Z,17.53
2017-12-11T08:46:06.984Z,17.54
2017-12-11T08:47:09.458Z,17.53
2017-12-11T08:48:11.960Z,17.53
2017-12-11T08:49:14.436Z,17.53
2017-12-11T08:50:16.894Z,17.53
2017-12-11T08:51:19.344Z,17.52
2017-12-11T08:52:21.822Z,17.52
2017-12-11T08:53:24.274Z,17.53
2017-12-11T08:54:26.730Z,17.52
2017-12-11T08:55:29.220Z,17.53
2017-12-11T08:56:31.717Z,17.53
2017-12-11T08:57:34.188Z,17.52
2017-12-11T08:58:36.643Z,17.52
2017-12-11T08:59:39.103Z,17.52
2017-12-11T09:00:41.571Z,17.50
2017-12-11T09:01:44.063Z,17.50
2017-12-11T09:02:46.526Z,17.51
2017-12-11T09:03:49.001Z,17.50
2017-12-11T09:04:51.492Z,17.50
2017-12-11T09:05:53.974Z,17.50
2017-12-11T09:06:56.457Z,17.50
2017-12-11T09:07:58.927Z,17.50
2017-12-11T09:09:01.382Z,17.49
2017-12-11T09:10:03.851Z,17.49
2017-12-11T09:11:06.333Z,17.49
2017-12-11T09:12:08.821Z,17.48
2017-12-11T09:13:11.308Z,17.47
2017-12-11T09:14:13.781Z,17.47
2017-12-11T09:15:16.255Z,17.46
2017-12-11T09:16:18.736Z,17.47
2017-12-11T09:17:21.213Z,17.46
2017-12-11T09:18:23.667Z,17.46
2017-12-11T09:19:26.141Z,17.45
2017-12-11T09:20:28.595Z,17.46
2017-12-11T09:21:31.066Z,17.44
2017-12-11T09:22:33.550Z,17.45
2017-12-11T09:23:36.061Z,17.44
2017-12-11T09:24:38.601Z,17.44
2017-12-11T09:25:41.092Z,17.44
2017-12-11T09:26:43.565Z,17.44
2017-12-11T09:27:46.037Z,17.43
2017-12-11T09:28:48.504Z,17.42
2017-12-11T09:29:50.963Z,17.41
2017-12-11T09:30:53.436Z,17.41
2017-12-11T09:31:55.898Z,17.42
2017-12-11T09:32:58.362Z,17.41
2017-12-11T09:34:00.818Z,17.41
2017-12-11T09:35:03.292Z,17.41
2017-12-11T09:36:05.759Z,17.40
2017-12-11T09:37:08.248Z,17.40
2017-12-11T09:38:10.733Z,17.40
2017-12-11T09:39:13.217Z,17.40
2017-12-11T09:40:15.705Z,17.40
2017-12-11T09:41:18.181Z,17.40
2017-12-11T09:42:20.665Z,17.40
2017-12-11T09:43:23.130Z,17.40
2017-12-11T09:44:25.604Z,17.40
2017-12-11T09:45:28.088Z,17.41
2017-12-11T09:46:30.557Z,17.40
2017-12-11T09:47:33.023Z,17.39
2017-12-11T09:48:35.495Z,17.39
2017-12-11T09:49:37.963Z,17.38
2017-12-11T09:50:41.563Z,17.38
2017-12-11T09:51:44.026Z,17.38
2017-12-11T09:52:46.504Z,17.38
2017-12-11T09:53:48.984Z,17.38
2017-12-11T09:54:51.464Z,17.37
2017-12-11T09:55:53.926Z,17.37
2017-12-11T09:56:56.390Z,17.36
2017-12-11T09:57:58.872Z,17.35
2017-12-11T09:59:01.343Z,17.35
2017-12-11T10:00:03.829Z,17.35
2017-12-11T10:01:06.295Z,17.35
2017-12-11T10:02:08.753Z,17.35
2017-12-11T10:03:11.232Z,17.35
2017-12-11T10:04:13.698Z,17.34
2017-12-11T10:05:16.169Z,17.34
2017-12-11T10:06:18.645Z,17.33
2017-12-11T10:07:21.134Z,17.33
2017-12-11T10:08:23.613Z,17.32
2017-12-11T10:09:26.087Z,17.32
2017-12-11T10:10:28.550Z,17.31
2017-12-11T10:11:31.011Z,17.30
2017-12-11T10:12:33.486Z,17.30
2017-12-11T10:13:35.950Z,17.30
2017-12-11T10:14:38.414Z,17.29
2017-12-11T10:15:40.880Z,17.28
2017-12-11T10:16:43.341Z,17.28
2017-12-11T10:17:45.817Z,17.28
2017-12-11T10:18:48.290Z,17.28
2017-12-11T10:19:50.746Z,17.28
2017-12-11T10:20:53.234Z,17.27
2017-12-11T10:21:55.700Z,17.27
2017-12-11T10:22:58.191Z,17.27
2017-12-11T10:24:00.664Z,17.27
2017-12-11T10:25:03.147Z,17.27
2017-12-11T10:26:05.606Z,17.25
2017-12-11T10:27:08.066Z,17.26
2017-12-11T10:28:10.530Z,17.26
2017-12-11T10:29:12.994Z,17.25
2017-12-11T10:30:15.469Z,17.24
2017-12-11T10:31:17.949Z,17.25
2017-12-11T10:32:20.433Z,17.24
2017-12-11T10:33:22.922Z,17.24
2017-12-11T10:34:25.399Z,17.23
2017-12-11T10:35:27.873Z,17.23
2017-12-11T10:36:30.345Z,17.23
2017-12-11T10:37:32.813Z,17.23
2017-12-11T10:38:35.282Z,17.23
2017-12-11T10:39:37.792Z,17.23
2017-12-11T10:40:40.268Z,17.23
2017-12-11T10:41:42.730Z,17.23
2017-12-11T10:42:45.245Z,17.23
2017-12-11T10:43:47.723Z,17.22
2017-12-11T10:44:50.204Z,17.22
2017-12-11T10:45:52.668Z,17.21
2017-12-11T10:46:55.153Z,17.21
2017-12-11T10:47:57.610Z,17.21
2017-12-11T10:49:00.084Z,17.21
2017-12-11T10:50:02.547Z,17.20
2017-12-11T10:51:05.020Z,17.20
2017-12-11T10:52:07.501Z,17.20
2017-12-11T10:53:09.963Z,17.20
2017-12-11T10:54:12.446Z,17.20
2017-12-11T10:55:14.932Z,17.20
2017-12-11T10:56:17.396Z,17.19
2017-12-11T10:57:19.858Z,17.19
2017-12-11T10:58:22.336Z,17.20
2017-12-11T10:59:24.798Z,17.19
2017-12-11T11:00:27.266Z,17.19
2017-12-11T11:01:29.810Z,17.19
2017-12-11T11:02:32.270Z,17.18
2017-12-11T11:03:34.745Z,17.19
2017-12-11T11:04:37.217Z,17.18
2017-12-11T11:05:39.682Z,17.18
2017-12-11T11:06:42.142Z,17.18
2017-12-11T11:07:44.602Z,17.18
2017-12-11T11:08:47.081Z,17.18
2017-12-11T11:09:49.546Z,17.17
2017-12-11T11:10:52.024Z,17.18
2017-12-11T11:11:54.489Z,17.18
2017-12-11T11:12:56.954Z,17.17
2017-12-11T11:13:59.444Z,17.18
2017-12-11T11:15:01.907Z,17.17
2017-12-11T11:16:04.370Z,17.18
2017-12-11T11:17:06.881Z,17.19
2017-12-11T11:18:09.356Z,17.18
2017-12-11T11:19:11.861Z,17.18
2017-12-11T11:20:14.332Z,17.19
2017-12-11T11:21:16.792Z,17.19
2017-12-11T11:22:19.269Z,17.19
2017-12-11T11:23:21.744Z,17.19
2017-12-11T11:24:24.211Z,17.19
2017-12-11T11:25:26.679Z,17.18
2017-12-11T11:26:29.135Z,17.18
2017-12-11T11:27:31.595Z,17.18
2017-12-11T11:28:34.058Z,17.19
2017-12-11T11:29:36.580Z,17.19
2017-12-11T11:30:39.940Z,17.18
2017-12-11T11:31:42.421Z,17.18
2017-12-11T11:32:44.874Z,17.17
2017-12-11T11:33:47.338Z,17.17
2017-12-11T11:34:49.802Z,17.18
2017-12-11T11:35:52.283Z,17.18
2017-12-11T11:36:54.742Z,17.17
2017-12-11T11:37:57.202Z,17.17
2017-12-11T11:38:59.667Z,17.17
2017-12-11T11:40:02.142Z,17.17
2017-12-11T11:41:04.610Z,17.17
2017-12-11T11:42:07.088Z,17.18
2017-12-11T11:43:09.561Z,17.17
2017-12-11T11:44:12.040Z,17.18
2017-12-11T11:45:14.516Z,17.18
2017-12-11T11:46:16.994Z,17.17
2017-12-11T11:47:19.456Z,17.17
2017-12-11T11:48:21.940Z,17.17
2017-12-11T11:49:24.436Z,17.16
2017-12-11T11:50:27.007Z,17.16
2017-12-11T11:51:29.471Z,17.16
2017-12-11T11:52:31.938Z,17.16
2017-12-11T11:53:34.418Z,17.14
2017-12-11T11:54:36.888Z,17.14
2017-12-11T11:55:39.348Z,17.13
2017-12-11T11:56:41.828Z,17.13
2017-12-11T11:57:44.304Z,17.13
2017-12-11T11:58:46.780Z,17.12
2017-12-11T11:59:49.247Z,17.11
2017-12-11T12:00:51.718Z,17.11
2017-12-11T12:01:54.170Z,17.11
2017-12-11T12:02:56.634Z,17.11
2017-12-11T12:03:59.099Z,17.10
2017-12-11T12:05:01.581Z,17.10
2017-12-11T12:06:04.051Z,17.09
2017-12-11T12:07:06.528Z,17.09
2017-12-11T12:08:09.005Z,17.09
2017-12-11T12:09:11.480Z,17.09
2017-12-11T12:10:13.946Z,17.09
2017-12-11T12:11:16.410Z,17.09
2017-12-11T12:12:18.878Z,17.10
2017-12-11T12:13:21.338Z,17.09
2017-12-11T12:14:23.811Z,17.09
2017-12-11T12:15:26.289Z,17.08
2017-12-11T12:16:28.764Z,17.09
2017-12-11T12:17:31.235Z,17.09
2017-12-11T12:18:33.699Z,17.08
2017-12-11T12:19:36.162Z,17.08
2017-12-11T12:20:38.663Z,17.08
2017-12-11T12:21:41.140Z,17.07
2017-12-11T12:22:43.598Z,17.06
2017-12-11T12:23:46.066Z,17.06
2017-12-11T12:24:48.526Z,17.05
2017-12-11T12:25:51.001Z,17.05
2017-12-11T12:26:53.478Z,17.04
2017-12-11T12:27:55.954Z,17.03
2017-12-11T12:28:58.414Z,17.03
2017-12-11T12:30:00.891Z,17.01
2017-12-11T12:31:04.346Z,17.00
2017-12-11T12:32:06.820Z,17.02
2017-12-11T12:33:09.315Z,17.02
2017-12-11T12:34:11.774Z,17.06
2017-12-11T12:35:14.234Z,17.16
2017-12-11T12:36:16.694Z,17.23
2017-12-11T12:37:19.194Z,17.37
2017-12-11T12:38:21.669Z,17.51
2017-12-11T12:39:24.152Z,17.63
2017-12-11T12:40:26.620Z,17.79
2017-12-11T12:41:29.082Z,17.93
2017-12-11T12:42:31.555Z,18.10
2017-12-11T12:43:34.312Z,18.25
2017-12-11T12:44:36.869Z,18.40
2017-12-11T12:45:39.372Z,18.56
2017-12-11T12:46:41.849Z,18.72
2017-12-11T12:47:44.326Z,18.84
2017-12-11T12:48:46.783Z,18.93
2017-12-11T12:49:49.302Z,19.04
2017-12-11T12:50:51.766Z,19.16
2017-12-11T12:51:54.219Z,19.19
2017-12-11T12:52:56.671Z,19.20
2017-12-11T12:53:59.273Z,19.26
2017-12-11T12:55:01.740Z,19.27
2017-12-11T12:56:04.199Z,19.32
2017-12-11T12:57:06.655Z,19.31
2017-12-11T12:58:09.105Z,19.29
2017-12-11T12:59:11.592Z,19.32
2017-12-11T13:00:14.084Z,19.39
2017-12-11T13:01:16.534Z,19.45
2017-12-11T13:02:18.987Z,19.49
2017-12-11T13:03:21.457Z,19.53
2017-12-11T13:04:23.925Z,19.59
2017-12-11T13:05:26.456Z,19.66
2017-12-11T13:06:28.914Z,19.75
2017-12-11T13:07:31.385Z,19.84
2017-12-11T13:08:33.847Z,19.86
2017-12-11T13:09:36.310Z,19.89
2017-12-11T13:10:38.781Z,19.90
2017-12-11T13:11:41.234Z,19.89
2017-12-11T13:12:43.699Z,19.87
2017-12-11T13:13:46.155Z,19.83
2017-12-11T13:14:48.624Z,19.81
2017-12-11T13:15:51.078Z,19.78
2017-12-11T13:16:53.526Z,19.71
2017-12-11T13:17:55.997Z,19.70
2017-12-11T13:18:58.527Z,19.71
2017-12-11T13:20:01.006Z,19.76
2017-12-11T13:21:03.471Z,19.81
2017-12-11T13:22:05.941Z,19.92
2017-12-11T13:23:08.427Z,19.96
2017-12-11T13:24:10.892Z,20.02